createdAt,value
2018-08-16T00:04:57.917Z,17.2
2018-08-16T00:10:28.393Z,17.1
2018-08-16T00:15:57.240Z,17.1
2018-08-16T00:21:32.611Z,17
2018-08-16T00:26:56.888Z,17
2018-08-16T00:32:25.583Z,16.9
2018-08-16T00:37:55.740Z,16.9
2018-08-16T00:43:25.133Z,16.8
2018-08-16T00:48:59.024Z,16.8
2018-08-16T00:54:28.204Z,16.8
2018-08-16T00:59:58.626Z,16.7
2018-08-16T01:05:22.451Z,16.7
2018-08-16T01:10:52.555Z,16.6
2018-08-16T01:16:22.799Z,16.6
2018-08-16T01:21:57.104Z,16.6
2018-08-16T01:27:21.163Z,16.6
2018-08-16T01:32:50.048Z,16.7
2018-08-16T01:38:20.537Z,16.7
2018-08-16T01:43:49.444Z,16.7
2018-08-16T01:49:24.487Z,16.8
2018-08-16T01:54:53.631Z,16.8
2018-08-16T02:05:51.997Z,16.9
2018-08-16T02:11:16.154Z,17
2018-08-16T02:16:45.325Z,17
2018-08-16T02:22:14.992Z,17.1
2018-08-16T02:27:44.891Z,17.1
2018-08-16T02:33:13.888Z,17.1
2018-08-16T02:38:44.370Z,17.1
2018-08-16T02:44:14.351Z,17.1
2018-08-16T02:49:44.981Z,17.1
2018-08-16T02:55:13.817Z,17.1
2018-08-16T03:00:42.768Z,17.1
2018-08-16T03:06:17.920Z,17
2018-08-16T03:11:42.371Z,17
2018-08-16T03:17:11.232Z,17
2018-08-16T03:22:41.401Z,17
2018-08-16T03:28:10.837Z,17
2018-08-16T03:33:39.738Z,17
2018-08-16T03:39:14.897Z,17
2018-08-16T03:44:44.057Z,17
2018-08-16T03:50:13.424Z,17
2018-08-16T03:55:37.422Z,17
2018-08-16T04:01:11.585Z,17
2018-08-16T04:06:35.714Z,17
2018-08-16T04:12:05.921Z,17.1
2018-08-16T04:17:36.322Z,17.1
2018-08-16T04:23:06.606Z,17.1
2018-08-16T04:28:35.504Z,17.1
2018-08-16T04:34:04.635Z,17.1
2018-08-16T04:39:33.758Z,17.2
2018-08-16T04:45:09.594Z,17.2
2018-08-16T04:50:34.580Z,17.2
2018-08-16T04:56:09.604Z,17.2
2018-08-16T05:01:34.872Z,17.3
2018-08-16T05:07:04.693Z,17.3
2018-08-16T05:12:33.954Z,17.3
2018-08-16T05:18:04.076Z,17.4
2018-08-16T05:23:33.388Z,17.4
2018-08-16T05:29:07.838Z,17.4
2018-08-16T05:34:32.773Z,17.5
2018-08-16T05:40:02.528Z,17.5
2018-08-16T05:45:31.491Z,17.5
2018-08-16T05:51:01.426Z,17.6
2018-08-16T05:56:30.915Z,17.6
2018-08-16T06:02:05.792Z,17.7
2018-08-16T06:07:34.199Z,17.8
2018-08-16T06:12:59.450Z,17.8
2018-08-16T06:18:33.972Z,17.9
2018-08-16T06:23:59.141Z,18
2018-08-16T06:29:29.403Z,18
2018-08-16T06:34:59.503Z,18.1
2018-08-16T06:40:33.755Z,18.1
2018-08-16T06:45:58.273Z,18.2
2018-08-16T06:51:33.336Z,18.2
2018-08-16T06:56:57.751Z,18.3
2018-08-16T07:02:33.334Z,18.3
2018-08-16T07:08:02.263Z,18.4
2018-08-16T07:13:26.680Z,18.4
2018-08-16T07:18:55.973Z,18.5
2018-08-16T07:24:30.344Z,18.6
2018-08-16T07:30:00.728Z,18.7
2018-08-16T07:35:31.003Z,18.9
2018-08-16T07:41:00.413Z,19
2018-08-16T07:46:30.099Z,19
2018-08-16T07:51:54.470Z,19.1
2018-08-16T07:57:24.669Z,19.2
2018-08-16T08:02:54.973Z,19.2
2018-08-16T08:08:24.431Z,19.3
2018-08-16T08:13:53.878Z,19.4
2018-08-16T08:19:24.359Z,19.5
2018-08-16T08:24:59.804Z,19.6
2018-08-16T08:30:30.295Z,19.6
2018-08-16T08:35:59.739Z,19.8
2018-08-16T08:41:25.336Z,19.9
2018-08-16T08:46:54.740Z,20.1
2018-08-16T08:52:30.649Z,20.3
2018-08-16T08:57:54.987Z,20.5
2018-08-16T09:03:24.604Z,20.6
2018-08-16T09:08:55.258Z,20.6
2018-08-16T09:14:25.917Z,20.6
2018-08-16T09:20:00.649Z,20.7
2018-08-16T09:25:31.455Z,20.9
2018-08-16T09:30:56.021Z,21.1
2018-08-16T09:36:25.822Z,21.2
2018-08-16T09:41:55.558Z,21.2
2018-08-16T09:47:25.253Z,21.1
2018-08-16T09:52:55.637Z,21.1
2018-08-16T09:58:25.313Z,21.1
2018-08-16T10:03:56.340Z,21.1
2018-08-16T10:09:26.752Z,21.1
2018-08-16T10:15:01.796Z,21
2018-08-16T10:20:27.231Z,21.1
2018-08-16T10:25:57.748Z,21.2
2018-08-16T10:31:27.501Z,21.2
2018-08-16T10:36:57.440Z,21.1
2018-08-16T10:42:27.075Z,21
2018-08-16T10:47:57.839Z,21
2018-08-16T10:53:27.194Z,21
2018-08-16T10:58:56.797Z,21.1
2018-08-16T11:04:32.534Z,21.1
2018-08-16T11:10:02.499Z,21.2
2018-08-16T11:15:27.892Z,21.2
2018-08-16T11:20:57.754Z,21.2
2018-08-16T11:26:28.719Z,21.1
2018-08-16T11:32:01.097Z,21.1
2018-08-16T11:37:33.677Z,21
2018-08-16T11:43:04.781Z,21
2018-08-16T11:48:34.008Z,21
2018-08-16T11:54:05.146Z,21
2018-08-16T11:59:30.675Z,21.1
2018-08-16T12:05:01.121Z,21.1
2018-08-16T12:10:33.026Z,21.1
2018-08-16T12:16:01.561Z,21.1
2018-08-16T12:21:32.213Z,21.2
2018-08-16T12:27:02.279Z,21.2
2018-08-16T12:32:37.691Z,21.1
2018-08-16T12:38:02.332Z,21.1
2018-08-16T12:43:33.339Z,21.1
2018-08-16T12:49:02.675Z,21.1
2018-08-16T12:54:32.614Z,21.1
2018-08-16T13:00:02.306Z,21.1
2018-08-16T13:05:33.075Z,21.1
2018-08-16T13:11:08.637Z,21.2
2018-08-16T13:16:34.287Z,21.2
2018-08-16T13:22:05.343Z,21.2
2018-08-16T13:33:05.754Z,21.2
2018-08-16T13:33:10.923Z,21.2
2018-08-16T13:38:40.222Z,21.2
2018-08-16T13:44:09.815Z,21.2
2018-08-16T13:49:39.892Z,21.2
2018-08-16T13:55:10.259Z,21.2
2018-08-16T14:00:40.945Z,21.1
2018-08-16T14:06:11.488Z,21.2
2018-08-16T14:11:37.366Z,21.2
2018-08-16T14:17:06.881Z,21.3
2018-08-16T14:22:37.705Z,21.3
2018-08-16T14:28:08.615Z,21.3
2018-08-16T14:33:39.296Z,21.3
2018-08-16T14:39:09.389Z,21.3
2018-08-16T14:44:44.718Z,21.3
2018-08-16T14:50:14.339Z,21.2
2018-08-16T14:55:43.940Z,21.2
2018-08-16T15:01:08.919Z,21.2
2018-08-16T15:06:39.590Z,21.2
2018-08-16T15:12:09.022Z,21.2
2018-08-16T15:17:38.989Z,21.3
2018-08-16T15:23:08.939Z,21.3
2018-08-16T15:28:44.422Z,21.3
2018-08-16T15:34:09.157Z,21.2
2018-08-16T15:39:40.006Z,21.2
2018-08-16T15:45:09.280Z,21.2
2018-08-16T15:50:39.067Z,21.2
2018-08-16T15:56:09.666Z,21.1
2018-08-16T16:01:43.256Z,21.1
2018-08-16T16:07:09.331Z,21.1
2018-08-16T16:12:39.177Z,21.1
2018-08-16T16:18:08.620Z,21.1
2018-08-16T16:23:38.197Z,21.1
2018-08-16T16:29:07.828Z,21
2018-08-16T16:34:37.490Z,20.9
2018-08-16T16:40:12.208Z,20.9
2018-08-16T16:45:42.835Z,20.8
2018-08-16T16:51:08.517Z,20.8
2018-08-16T16:56:39.174Z,20.7
2018-08-16T17:02:09.278Z,20.7
2018-08-16T17:07:54.389Z,20.7
2018-08-16T17:13:09.090Z,20.6
2018-08-16T17:18:38.721Z,20.6
2018-08-16T17:24:08.384Z,20.5
2018-08-16T17:29:38.474Z,20.5
2018-08-16T17:35:12.970Z,20.4
2018-08-16T17:40:37.231Z,20.4
2018-08-16T17:46:06.790Z,20.3
2018-08-16T17:51:41.443Z,20.3
2018-08-16T17:57:12.087Z,20.3
2018-08-16T18:02:42.552Z,20.2
2018-08-16T18:08:13.414Z,20.2
2018-08-16T18:13:37.665Z,20.2
2018-08-16T18:19:08.427Z,20.1
2018-08-16T18:24:38.947Z,20.1
2018-08-16T18:30:13.571Z,20.1
2018-08-16T18:35:38.907Z,20
2018-08-16T18:41:26.866Z,20
2018-08-16T18:46:38.956Z,20
2018-08-16T18:52:08.516Z,19.9
2018-08-16T18:57:37.972Z,19.9
2018-08-16T19:03:07.467Z,19.8
2018-08-16T19:08:38.923Z,19.8
2018-08-16T19:14:07.516Z,19.7
2018-08-16T19:19:41.965Z,19.7
2018-08-16T19:25:07.635Z,19.7
2018-08-16T19:30:43.023Z,19.6
2018-08-16T19:36:12.590Z,19.6
2018-08-16T19:41:38.085Z,19.5
2018-08-16T19:47:07.293Z,19.5
2018-08-16T19:52:36.703Z,19.5
2018-08-16T19:58:11.567Z,19.4
2018-08-16T20:03:41.987Z,19.4
2018-08-16T20:09:12.079Z,19.3
2018-08-16T20:14:36.445Z,19.3
2018-08-16T20:20:05.869Z,19.2
2018-08-16T20:25:35.337Z,19.2
2018-08-16T20:31:05.979Z,19.1
2018-08-16T20:36:36.097Z,19.1
2018-08-16T20:42:06.554Z,19
2018-08-16T20:47:36.884Z,19
2018-08-16T20:53:11.310Z,18.9
2018-08-16T20:58:36.688Z,18.9
2018-08-16T21:04:12.096Z,18.9
2018-08-16T21:09:41.726Z,18.9
2018-08-16T21:15:11.104Z,18.8
2018-08-16T21:20:40.249Z,18.8
2018-08-16T21:26:09.581Z,18.8
2018-08-16T21:31:44.111Z,18.7
2018-08-16T21:37:04.336Z,18.7
2018-08-16T21:42:34.658Z,18.6
2018-08-16T21:48:05.171Z,18.6
2018-08-16T21:53:35.648Z,18.5
2018-08-16T21:59:04.842Z,18.5
2018-08-16T22:04:34.104Z,18.5
2018-08-16T22:10:03.338Z,18.4
2018-08-16T22:15:32.733Z,18.3
2018-08-16T22:21:03.147Z,18.2
2018-08-16T22:26:33.515Z,18.2
2018-08-16T22:32:04.052Z,18.1
2018-08-16T22:37:32.807Z,18.1
2018-08-16T22:43:02.055Z,18
2018-08-16T22:48:31.394Z,18
2018-08-16T22:59:31.010Z,17.9
2018-08-16T23:05:06.657Z,17.9
2018-08-16T23:10:30.417Z,17.8
2018-08-16T23:16:05.206Z,17.8
2018-08-16T23:21:29.908Z,17.8
2018-08-16T23:26:59.106Z,17.7
2018-08-16T23:32:29.635Z,17.7
2018-08-16T23:37:58.779Z,17.7
2018-08-16T23:43:28.799Z,17.6
2018-08-16T23:48:58.055Z,17.6
2018-08-16T23:54:28.894Z,17.5
2018-08-16T23:59:57.753Z,17.4
